sensor_id;sensor_type;location;lat;lon;timestamp;P1;durP1;ratioP1;P2;durP2;ratioP2
41141;SDS011;26882;0.000;0.000;2022-07-22T00:02:06;8.80;;;6.10;;
41141;SDS011;26882;0.000;0.000;2022-07-22T00:04:57;8.30;;;5.70;;
41141;SDS011;26882;0.000;0.000;2022-07-22T00:07:48;9.60;;;5.70;;
41141;SDS011;26882;0.000;0.000;2022-07-22T00:10:39;9.50;;;6.10;;
41141;SDS011;26882;0.000;0.000;2022-07-22T00:13:11;8.10;;;6.00;;
41141;SDS011;26882;0.000;0.000;2022-07-22T00:15:44;9.20;;;5.90;;
41141;SDS011;26882;0.000;0.000;2022-07-22T00:18:19;9.10;;;5.90;;
41141;SDS011;26882;0.000;0.000;2022-07-22T00:20:51;7.40;;;5.70;;
41141;SDS011;26882;0.000;0.000;2022-07-22T00:23:28;7.50;;;5.30;;
41141;SDS011;26882;0.000;0.000;2022-07-22T00:26:05;7.00;;;5.60;;
41141;SDS011;26882;0.000;0.000;2022-07-22T00:28:37;8.50;;;5.70;;
41141;SDS011;26882;0.000;0.000;2022-07-22T00:31:09;10.10;;;6.00;;
41141;SDS011;26882;0.000;0.000;2022-07-22T00:33:42;9.20;;;5.80;;
41141;SDS011;26882;0.000;0.000;2022-07-22T00:36:15;8.10;;;5.40;;
41141;SDS011;26882;0.000;0.000;2022-07-22T00:38:48;8.40;;;5.70;;
41141;SDS011;26882;0.000;0.000;2022-07-22T00:43:59;7.30;;;5.30;;
41141;SDS011;26882;0.000;0.000;2022-07-22T00:46:36;7.50;;;5.20;;
41141;SDS011;26882;0.000;0.000;2022-07-22T00:49:11;8.80;;;5.40;;
41141;SDS011;26882;0.000;0.000;2022-07-22T00:51:44;7.10;;;5.30;;
41141;SDS011;26882;0.000;0.000;2022-07-22T00:54:17;7.80;;;5.60;;
41141;SDS011;26882;0.000;0.000;2022-07-22T00:56:52;7.00;;;5.50;;
41141;SDS011;26882;0.000;0.000;2022-07-22T00:59:25;7.10;;;5.30;;
41141;SDS011;26882;0.000;0.000;2022-07-22T01:01:57;7.60;;;4.90;;
41141;SDS011;26882;0.000;0.000;2022-07-22T01:04:30;6.90;;;4.90;;
41141;SDS011;26882;0.000;0.000;2022-07-22T01:07:03;6.80;;;4.80;;
41141;SDS011;26882;0.000;0.000;2022-07-22T01:09:38;5.80;;;4.60;;
41141;SDS011;26882;0.000;0.000;2022-07-22T01:12:14;6.90;;;5.70;;
41141;SDS011;26882;0.000;0.000;2022-07-22T01:14:49;7.50;;;5.50;;
41141;SDS011;26882;0.000;0.000;2022-07-22T01:17:21;7.90;;;5.30;;
41141;SDS011;26882;0.000;0.000;2022-07-22T01:19:53;6.20;;;5.00;;
41141;SDS011;26882;0.000;0.000;2022-07-22T01:22:29;7.90;;;5.20;;
41141;SDS011;26882;0.000;0.000;2022-07-22T01:27:34;7.90;;;5.30;;
41141;SDS011;26882;0.000;0.000;2022-07-22T01:30:11;7.10;;;5.10;;
41141;SDS011;26882;0.000;0.000;2022-07-22T01:32:49;7.00;;;4.80;;
41141;SDS011;26882;0.000;0.000;2022-07-22T01:35:24;6.50;;;4.80;;
41141;SDS011;26882;0.000;0.000;2022-07-22T01:37:59;7.30;;;5.40;;
41141;SDS011;26882;0.000;0.000;2022-07-22T01:40:34;8.30;;;5.60;;
41141;SDS011;26882;0.000;0.000;2022-07-22T01:43:07;8.20;;;5.10;;
41141;SDS011;26882;0.000;0.000;2022-07-22T01:45:40;7.80;;;5.10;;
41141;SDS011;26882;0.000;0.000;2022-07-22T01:48:15;8.30;;;5.70;;
41141;SDS011;26882;0.000;0.000;2022-07-22T01:50:48;7.60;;;5.00;;
41141;SDS011;26882;0.000;0.000;2022-07-22T01:53:21;7.50;;;5.50;;
41141;SDS011;26882;0.000;0.000;2022-07-22T01:55:53;7.00;;;5.10;;
41141;SDS011;26882;0.000;0.000;2022-07-22T01:58:26;7.20;;;5.30;;
41141;SDS011;26882;0.000;0.000;2022-07-22T02:00:59;7.90;;;5.00;;
41141;SDS011;26882;0.000;0.000;2022-07-22T02:03:31;7.20;;;5.60;;
41141;SDS011;26882;0.000;0.000;2022-07-22T02:06:05;7.20;;;5.40;;
41141;SDS011;26882;0.000;0.000;2022-07-22T02:08:37;8.80;;;5.00;;
41141;SDS011;26882;0.000;0.000;2022-07-22T02:11:13;7.10;;;5.30;;
41141;SDS011;26882;0.000;0.000;2022-07-22T02:13:45;7.50;;;5.30;;
41141;SDS011;26882;0.000;0.000;2022-07-22T02:16:18;7.10;;;5.60;;
41141;SDS011;26882;0.000;0.000;2022-07-22T02:18:54;7.10;;;5.10;;
41141;SDS011;26882;0.000;0.000;2022-07-22T02:21:27;9.10;;;5.10;;
41141;SDS011;26882;0.000;0.000;2022-07-22T02:26:33;7.80;;;5.60;;
41141;SDS011;26882;0.000;0.000;2022-07-22T02:29:06;8.00;;;5.70;;
41141;SDS011;26882;0.000;0.000;2022-07-22T02:31:39;7.70;;;5.60;;
41141;SDS011;26882;0.000;0.000;2022-07-22T02:34:14;8.80;;;5.70;;
41141;SDS011;26882;0.000;0.000;2022-07-22T02:36:46;7.90;;;5.50;;
41141;SDS011;26882;0.000;0.000;2022-07-22T02:39:19;7.50;;;5.60;;
41141;SDS011;26882;0.000;0.000;2022-07-22T02:41:52;7.00;;;5.50;;
41141;SDS011;26882;0.000;0.000;2022-07-22T02:44:24;7.60;;;5.30;;
41141;SDS011;26882;0.000;0.000;2022-07-22T02:46:57;6.70;;;5.70;;
41141;SDS011;26882;0.000;0.000;2022-07-22T02:49:32;7.50;;;5.50;;
41141;SDS011;26882;0.000;0.000;2022-07-22T02:52:07;8.20;;;5.70;;
41141;SDS011;26882;0.000;0.000;2022-07-22T02:54:40;7.90;;;5.70;;
41141;SDS011;26882;0.000;0.000;2022-07-22T02:57:16;6.80;;;5.50;;
41141;SDS011;26882;0.000;0.000;2022-07-22T02:59:49;6.80;;;5.50;;
41141;SDS011;26882;0.000;0.000;2022-07-22T03:02:22;10.10;;;5.80;;
41141;SDS011;26882;0.000;0.000;2022-07-22T03:04:57;7.80;;;5.60;;
41141;SDS011;26882;0.000;0.000;2022-07-22T03:07:30;6.70;;;5.20;;
41141;SDS011;26882;0.000;0.000;2022-07-22T03:10:07;9.00;;;5.90;;
41141;SDS011;26882;0.000;0.000;2022-07-22T03:12:41;7.20;;;5.40;;
41141;SDS011;26882;0.000;0.000;2022-07-22T03:15:13;7.10;;;5.30;;
41141;SDS011;26882;0.000;0.000;2022-07-22T03:17:48;7.80;;;5.10;;
41141;SDS011;26882;0.000;0.000;2022-07-22T03:20:25;8.40;;;5.90;;
41141;SDS011;26882;0.000;0.000;2022-07-22T03:22:59;7.30;;;5.70;;
41141;SDS011;26882;0.000;0.000;2022-07-22T03:25:31;7.60;;;5.20;;
41141;SDS011;26882;0.000;0.000;2022-07-22T03:28:06;8.70;;;5.40;;
41141;SDS011;26882;0.000;0.000;2022-07-22T03:30:38;10.00;;;5.90;;
41141;SDS011;26882;0.000;0.000;2022-07-22T03:33:10;7.10;;;5.50;;
41141;SDS011;26882;0.000;0.000;2022-07-22T03:35:45;8.10;;;5.90;;
41141;SDS011;26882;0.000;0.000;2022-07-22T03:38:18;8.60;;;5.90;;
41141;SDS011;26882;0.000;0.000;2022-07-22T03:40:53;8.50;;;5.50;;
41141;SDS011;26882;0.000;0.000;2022-07-22T03:43:28;7.70;;;5.40;;
41141;SDS011;26882;0.000;0.000;2022-07-22T03:46:03;7.40;;;5.60;;
41141;SDS011;26882;0.000;0.000;2022-07-22T03:48:40;7.80;;;5.90;;
41141;SDS011;26882;0.000;0.000;2022-07-22T03:51:12;7.60;;;5.60;;
41141;SDS011;26882;0.000;0.000;2022-07-22T03:53:45;8.80;;;6.30;;
41141;SDS011;26882;0.000;0.000;2022-07-22T03:56:20;7.00;;;5.50;;
41141;SDS011;26882;0.000;0.000;2022-07-22T03:58:56;8.20;;;5.70;;
41141;SDS011;26882;0.000;0.000;2022-07-22T04:01:29;7.00;;;6.00;;
41141;SDS011;26882;0.000;0.000;2022-07-22T04:04:02;8.10;;;5.70;;
41141;SDS011;26882;0.000;0.000;2022-07-22T04:06:37;8.70;;;6.40;;
41141;SDS011;26882;0.000;0.000;2022-07-22T04:09:11;8.10;;;5.80;;
41141;SDS011;26882;0.000;0.000;2022-07-22T04:11:43;8.40;;;5.80;;
41141;SDS011;26882;0.000;0.000;2022-07-22T04:14:20;7.30;;;5.60;;
41141;SDS011;26882;0.000;0.000;2022-07-22T04:16:52;8.90;;;6.00;;
41141;SDS011;26882;0.000;0.000;2022-07-22T04:19:24;8.10;;;5.70;;
41141;SDS011;26882;0.000;0.000;2022-07-22T04:21:58;7.40;;;5.90;;
41141;SDS011;26882;0.000;0.000;2022-07-22T04:27:05;8.10;;;6.10;;
41141;SDS011;26882;0.000;0.000;2022-07-22T04:29:37;8.30;;;5.90;;
41141;SDS011;26882;0.000;0.000;2022-07-22T04:32:10;6.60;;;5.50;;
41141;SDS011;26882;0.000;0.000;2022-07-22T04:34:42;6.70;;;5.70;;
41141;SDS011;26882;0.000;0.000;2022-07-22T04:37:20;7.40;;;6.10;;
41141;SDS011;26882;0.000;0.000;2022-07-22T04:39:52;8.20;;;6.00;;
41141;SDS011;26882;0.000;0.000;2022-07-22T04:42:31;7.70;;;6.20;;
41141;SDS011;26882;0.000;0.000;2022-07-22T04:45:05;7.10;;;5.90;;
41141;SDS011;26882;0.000;0.000;2022-07-22T04:47:42;8.70;;;6.40;;
41141;SDS011;26882;0.000;0.000;2022-07-22T04:50:14;7.80;;;5.70;;
41141;SDS011;26882;0.000;0.000;2022-07-22T04:52:46;6.80;;;5.80;;
41141;SDS011;26882;0.000;0.000;2022-07-22T04:55:21;8.70;;;6.40;;
41141;SDS011;26882;0.000;0.000;2022-07-22T04:57:53;8.30;;;6.40;;
41141;SDS011;26882;0.000;0.000;2022-07-22T05:00:25;7.80;;;6.10;;
41141;SDS011;26882;0.000;0.000;2022-07-22T05:03:00;9.90;;;6.40;;
41141;SDS011;26882;0.000;0.000;2022-07-22T05:05:33;8.10;;;6.10;;
41141;SDS011;26882;0.000;0.000;2022-07-22T05:08:06;7.70;;;6.10;;
41141;SDS011;26882;0.000;0.000;2022-07-22T05:10:39;8.10;;;6.70;;
41141;SDS011;26882;0.000;0.000;2022-07-22T05:13:13;8.10;;;6.70;;
41141;SDS011;26882;0.000;0.000;2022-07-22T05:15:45;7.40;;;5.80;;
41141;SDS011;26882;0.000;0.000;2022-07-22T05:18:18;8.00;;;6.10;;
41141;SDS011;26882;0.000;0.000;2022-07-22T05:20:50;8.80;;;6.00;;
41141;SDS011;26882;0.000;0.000;2022-07-22T05:23:22;8.10;;;5.90;;
41141;SDS011;26882;0.000;0.000;2022-07-22T05:25:54;8.50;;;6.00;;
41141;SDS011;26882;0.000;0.000;2022-07-22T05:28:27;6.50;;;5.70;;
41141;SDS011;26882;0.000;0.000;2022-07-22T05:30:59;7.50;;;6.00;;
41141;SDS011;26882;0.000;0.000;2022-07-22T05:33:32;8.40;;;5.90;;
41141;SDS011;26882;0.000;0.000;2022-07-22T05:36:05;8.30;;;6.30;;
41141;SDS011;26882;0.000;0.000;2022-07-22T05:38:39;8.90;;;6.10;;
41141;SDS011;26882;0.000;0.000;2022-07-22T05:41:11;7.40;;;6.30;;
41141;SDS011;26882;0.000;0.000;2022-07-22T05:43:44;7.70;;;6.00;;
41141;SDS011;26882;0.000;0.000;2022-07-22T05:46:16;8.10;;;5.90;;
41141;SDS011;26882;0.000;0.000;2022-07-22T05:48:51;6.90;;;6.10;;
41141;SDS011;26882;0.000;0.000;2022-07-22T05:51:24;10.10;;;6.50;;
41141;SDS011;26882;0.000;0.000;2022-07-22T05:53:56;8.80;;;6.50;;
41141;SDS011;26882;0.000;0.000;2022-07-22T05:56:29;7.70;;;6.00;;
41141;SDS011;26882;0.000;0.000;2022-07-22T05:59:04;8.00;;;6.50;;
41141;SDS011;26882;0.000;0.000;2022-07-22T06:01:38;10.70;;;6.20;;
41141;SDS011;26882;0.000;0.000;2022-07-22T06:04:10;9.40;;;6.50;;
41141;SDS011;26882;0.000;0.000;2022-07-22T06:06:43;9.00;;;6.40;;
41141;SDS011;26882;0.000;0.000;2022-07-22T06:09:15;7.30;;;6.00;;
41141;SDS011;26882;0.000;0.000;2022-07-22T06:11:47;9.50;;;5.90;;
41141;SDS011;26882;0.000;0.000;2022-07-22T06:14:20;10.00;;;6.00;;
41141;SDS011;26882;0.000;0.000;2022-07-22T06:16:52;9.10;;;6.00;;
41141;SDS011;26882;0.000;0.000;2022-07-22T06:19:25;8.30;;;6.40;;
41141;SDS011;26882;0.000;0.000;2022-07-22T06:21:58;11.40;;;6.00;;
41141;SDS011;26882;0.000;0.000;2022-07-22T06:24:31;9.10;;;6.10;;
41141;SDS011;26882;0.000;0.000;2022-07-22T06:27:04;10.20;;;6.40;;
41141;SDS011;26882;0.000;0.000;2022-07-22T06:29:36;8.40;;;6.30;;
41141;SDS011;26882;0.000;0.000;2022-07-22T06:32:10;10.70;;;6.40;;
41141;SDS011;26882;0.000;0.000;2022-07-22T06:34:42;10.00;;;6.10;;
41141;SDS011;26882;0.000;0.000;2022-07-22T06:37:15;9.20;;;5.60;;
41141;SDS011;26882;0.000;0.000;2022-07-22T06:39:47;8.30;;;5.60;;
41141;SDS011;26882;0.000;0.000;2022-07-22T06:42:19;9.30;;;6.40;;
41141;SDS011;26882;0.000;0.000;2022-07-22T06:44:54;10.50;;;5.60;;
41141;SDS011;26882;0.000;0.000;2022-07-22T06:47:27;9.20;;;5.50;;
41141;SDS011;26882;0.000;0.000;2022-07-22T06:50:00;8.40;;;5.70;;
41141;SDS011;26882;0.000;0.000;2022-07-22T06:52:39;11.10;;;6.00;;
41141;SDS011;26882;0.000;0.000;2022-07-22T06:55:12;10.60;;;6.30;;
41141;SDS011;26882;0.000;0.000;2022-07-22T06:57:44;8.70;;;6.50;;
41141;SDS011;26882;0.000;0.000;2022-07-22T07:00:18;10.30;;;6.00;;
41141;SDS011;26882;0.000;0.000;2022-07-22T07:07:56;8.70;;;5.80;;
41141;SDS011;26882;0.000;0.000;2022-07-22T07:10:32;10.10;;;6.30;;
41141;SDS011;26882;0.000;0.000;2022-07-22T07:13:04;10.20;;;6.30;;
41141;SDS011;26882;0.000;0.000;2022-07-22T07:15:37;8.20;;;6.00;;
41141;SDS011;26882;0.000;0.000;2022-07-22T07:18:10;9.30;;;5.80;;
41141;SDS011;26882;0.000;0.000;2022-07-22T07:20:43;8.50;;;5.90;;
41141;SDS011;26882;0.000;0.000;2022-07-22T07:23:15;6.50;;;5.60;;
41141;SDS011;26882;0.000;0.000;2022-07-22T07:25:48;9.80;;;5.90;;
41141;SDS011;26882;0.000;0.000;2022-07-22T07:28:20;9.80;;;6.20;;
41141;SDS011;26882;0.000;0.000;2022-07-22T07:30:55;12.50;;;6.50;;
41141;SDS011;26882;0.000;0.000;2022-07-22T07:33:28;9.40;;;6.40;;
41141;SDS011;26882;0.000;0.000;2022-07-22T07:36:00;9.80;;;7.00;;
41141;SDS011;26882;0.000;0.000;2022-07-22T07:38:36;8.40;;;6.40;;
41141;SDS011;26882;0.000;0.000;2022-07-22T07:41:08;10.30;;;6.70;;
41141;SDS011;26882;0.000;0.000;2022-07-22T07:46:16;11.00;;;7.10;;
41141;SDS011;26882;0.000;0.000;2022-07-22T07:48:48;10.70;;;7.70;;
41141;SDS011;26882;0.000;0.000;2022-07-22T07:51:21;10.80;;;7.20;;
41141;SDS011;26882;0.000;0.000;2022-07-22T07:53:53;11.10;;;7.70;;
41141;SDS011;26882;0.000;0.000;2022-07-22T07:56:29;10.80;;;8.00;;
41141;SDS011;26882;0.000;0.000;2022-07-22T07:59:01;10.10;;;7.80;;
41141;SDS011;26882;0.000;0.000;2022-07-22T08:01:39;10.10;;;8.10;;
41141;SDS011;26882;0.000;0.000;2022-07-22T08:04:13;10.20;;;8.00;;
41141;SDS011;26882;0.000;0.000;2022-07-22T08:06:45;14.20;;;8.70;;
41141;SDS011;26882;0.000;0.000;2022-07-22T08:09:20;10.60;;;8.60;;
41141;SDS011;26882;0.000;0.000;2022-07-22T08:11:57;11.80;;;8.30;;
41141;SDS011;26882;0.000;0.000;2022-07-22T08:14:30;11.50;;;9.10;;
41141;SDS011;26882;0.000;0.000;2022-07-22T08:17:03;11.30;;;9.30;;
41141;SDS011;26882;0.000;0.000;2022-07-22T08:19:38;10.50;;;9.30;;
41141;SDS011;26882;0.000;0.000;2022-07-22T08:22:11;11.50;;;8.90;;
41141;SDS011;26882;0.000;0.000;2022-07-22T08:24:47;9.90;;;8.30;;
41141;SDS011;26882;0.000;0.000;2022-07-22T08:29:51;11.70;;;8.90;;
41141;SDS011;26882;0.000;0.000;2022-07-22T08:32:24;9.70;;;8.70;;
41141;SDS011;26882;0.000;0.000;2022-07-22T08:34:57;10.20;;;8.80;;
41141;SDS011;26882;0.000;0.000;2022-07-22T08:37:36;11.60;;;8.20;;
41141;SDS011;26882;0.000;0.000;2022-07-22T08:40:11;10.50;;;8.20;;
41141;SDS011;26882;0.000;0.000;2022-07-22T08:42:46;9.50;;;8.60;;
41141;SDS011;26882;0.000;0.000;2022-07-22T08:45:20;11.20;;;8.50;;
41141;SDS011;26882;0.000;0.000;2022-07-22T08:50:30;12.10;;;9.30;;
41141;SDS011;26882;0.000;0.000;2022-07-22T08:53:08;10.20;;;8.60;;
41141;SDS011;26882;0.000;0.000;2022-07-22T08:55:46;10.10;;;9.10;;
41141;SDS011;26882;0.000;0.000;2022-07-22T08:58:19;11.00;;;9.20;;
41141;SDS011;26882;0.000;0.000;2022-07-22T09:01:07;9.70;;;8.50;;
41141;SDS011;26882;0.000;0.000;2022-07-22T09:03:50;10.90;;;9.20;;
41141;SDS011;26882;0.000;0.000;2022-07-22T09:06:27;11.50;;;9.00;;
41141;SDS011;26882;0.000;0.000;2022-07-22T09:09:06;9.50;;;8.50;;
41141;SDS011;26882;0.000;0.000;2022-07-22T09:11:39;9.70;;;8.20;;
41141;SDS011;26882;0.000;0.000;2022-07-22T09:14:14;10.30;;;8.60;;
41141;SDS011;26882;0.000;0.000;2022-07-22T09:16:49;9.90;;;9.00;;
41141;SDS011;26882;0.000;0.000;2022-07-22T09:19:25;10.60;;;9.60;;
41141;SDS011;26882;0.000;0.000;2022-07-22T09:22:03;9.90;;;8.90;;
41141;SDS011;26882;0.000;0.000;2022-07-22T09:24:36;9.80;;;8.20;;
41141;SDS011;26882;0.000;0.000;2022-07-22T09:27:11;9.70;;;8.70;;
41141;SDS011;26882;0.000;0.000;2022-07-22T09:29:55;10.30;;;8.70;;
41141;SDS011;26882;0.000;0.000;2022-07-22T09:32:32;10.10;;;8.60;;
41141;SDS011;26882;0.000;0.000;2022-07-22T09:35:13;11.00;;;9.20;;
41141;SDS011;26882;0.000;0.000;2022-07-22T09:37:56;9.30;;;8.40;;
41141;SDS011;26882;0.000;0.000;2022-07-22T09:40:30;10.40;;;9.10;;
41141;SDS011;26882;0.000;0.000;2022-07-22T09:43:07;10.20;;;8.50;;
41141;SDS011;26882;0.000;0.000;2022-07-22T09:45:50;9.70;;;8.70;;
41141;SDS011;26882;0.000;0.000;2022-07-22T09:48:27;11.30;;;9.10;;
41141;SDS011;26882;0.000;0.000;2022-07-22T09:51:00;9.60;;;8.60;;
41141;SDS011;26882;0.000;0.000;2022-07-22T09:53:33;9.20;;;8.30;;
41141;SDS011;26882;0.000;0.000;2022-07-22T09:56:08;10.10;;;8.50;;
41141;SDS011;26882;0.000;0.000;2022-07-22T09:58:41;10.30;;;9.20;;
41141;SDS011;26882;0.000;0.000;2022-07-22T10:03:47;10.00;;;8.90;;
41141;SDS011;26882;0.000;0.000;2022-07-22T10:06:22;9.80;;;8.80;;
41141;SDS011;26882;0.000;0.000;2022-07-22T10:08:58;10.50;;;9.40;;
41141;SDS011;26882;0.000;0.000;2022-07-22T10:11:34;10.40;;;9.30;;
41141;SDS011;26882;0.000;0.000;2022-07-22T10:14:09;10.20;;;9.20;;
41141;SDS011;26882;0.000;0.000;2022-07-22T10:16:42;10.40;;;9.40;;
41141;SDS011;26882;0.000;0.000;2022-07-22T10:19:15;10.70;;;9.30;;
41141;SDS011;26882;0.000;0.000;2022-07-22T10:21:56;9.80;;;8.80;;
41141;SDS011;26882;0.000;0.000;2022-07-22T10:24:32;10.80;;;9.30;;
41141;SDS011;26882;0.000;0.000;2022-07-22T10:27:05;9.40;;;8.40;;
41141;SDS011;26882;0.000;0.000;2022-07-22T10:32:27;9.70;;;8.70;;
41141;SDS011;26882;0.000;0.000;2022-07-22T10:35:24;9.70;;;8.50;;
41141;SDS011;26882;0.000;0.000;2022-07-22T10:38:00;10.20;;;8.50;;
41141;SDS011;26882;0.000;0.000;2022-07-22T10:40:49;10.30;;;9.20;;
41141;SDS011;26882;0.000;0.000;2022-07-22T10:43:27;9.60;;;8.60;;
41141;SDS011;26882;0.000;0.000;2022-07-22T10:46:02;9.70;;;8.80;;
41141;SDS011;26882;0.000;0.000;2022-07-22T10:48:48;9.40;;;8.40;;
41141;SDS011;26882;0.000;0.000;2022-07-22T10:51:21;9.90;;;8.90;;
41141;SDS011;26882;0.000;0.000;2022-07-22T10:53:56;9.40;;;8.50;;
41141;SDS011;26882;0.000;0.000;2022-07-22T10:56:31;9.90;;;8.90;;
41141;SDS011;26882;0.000;0.000;2022-07-22T10:59:12;9.20;;;8.30;;
41141;SDS011;26882;0.000;0.000;2022-07-22T11:01:55;10.10;;;9.00;;
41141;SDS011;26882;0.000;0.000;2022-07-22T11:04:28;9.80;;;8.90;;
41141;SDS011;26882;0.000;0.000;2022-07-22T11:07:06;11.70;;;9.20;;
41141;SDS011;26882;0.000;0.000;2022-07-22T11:09:44;9.80;;;8.80;;
41141;SDS011;26882;0.000;0.000;2022-07-22T11:12:18;10.30;;;9.20;;
41141;SDS011;26882;0.000;0.000;2022-07-22T11:14:50;10.50;;;9.50;;
41141;SDS011;26882;0.000;0.000;2022-07-22T11:19:57;10.60;;;9.50;;
41141;SDS011;26882;0.000;0.000;2022-07-22T11:22:33;10.20;;;9.20;;
41141;SDS011;26882;0.000;0.000;2022-07-22T11:25:10;10.50;;;9.40;;
41141;SDS011;26882;0.000;0.000;2022-07-22T11:27:48;10.30;;;9.30;;
41141;SDS011;26882;0.000;0.000;2022-07-22T11:30:22;10.20;;;9.20;;
41141;SDS011;26882;0.000;0.000;2022-07-22T11:32:55;9.60;;;8.60;;
41141;SDS011;26882;0.000;0.000;2022-07-22T11:35:27;10.60;;;9.50;;
41141;SDS011;26882;0.000;0.000;2022-07-22T11:37:59;10.20;;;8.70;;
41141;SDS011;26882;0.000;0.000;2022-07-22T11:40:37;9.80;;;8.80;;
41141;SDS011;26882;0.000;0.000;2022-07-22T11:43:09;10.40;;;9.30;;
41141;SDS011;26882;0.000;0.000;2022-07-22T11:45:56;10.70;;;9.40;;
41141;SDS011;26882;0.000;0.000;2022-07-22T11:48:29;10.50;;;9.30;;
41141;SDS011;26882;0.000;0.000;2022-07-22T11:51:06;9.80;;;8.90;;
41141;SDS011;26882;0.000;0.000;2022-07-22T11:53:40;10.60;;;9.40;;
41141;SDS011;26882;0.000;0.000;2022-07-22T11:56:15;10.00;;;8.90;;
41141;SDS011;26882;0.000;0.000;2022-07-22T11:58:48;11.00;;;9.90;;
41141;SDS011;26882;0.000;0.000;2022-07-22T12:01:25;10.90;;;9.70;;
41141;SDS011;26882;0.000;0.000;2022-07-22T12:03:59;9.50;;;8.60;;
41141;SDS011;26882;0.000;0.000;2022-07-22T12:06:40;10.20;;;9.20;;
41141;SDS011;26882;0.000;0.000;2022-07-22T12:09:15;10.40;;;9.30;;
41141;SDS011;26882;0.000;0.000;2022-07-22T12:11:54;10.10;;;9.20;;
41141;SDS011;26882;0.000;0.000;2022-07-22T12:14:30;9.80;;;8.90;;
41141;SDS011;26882;0.000;0.000;2022-07-22T12:17:07;9.90;;;8.50;;
41141;SDS011;26882;0.000;0.000;2022-07-22T12:19:41;10.00;;;9.10;;
41141;SDS011;26882;0.000;0.000;2022-07-22T12:22:20;11.10;;;9.90;;
41141;SDS011;26882;0.000;0.000;2022-07-22T12:25:00;9.50;;;8.60;;
41141;SDS011;26882;0.000;0.000;2022-07-22T12:27:34;9.60;;;8.70;;
41141;SDS011;26882;0.000;0.000;2022-07-22T12:32:48;9.60;;;8.60;;
41141;SDS011;26882;0.000;0.000;2022-07-22T12:35:21;9.80;;;8.70;;
41141;SDS011;26882;0.000;0.000;2022-07-22T12:40:27;9.40;;;8.50;;
41141;SDS011;26882;0.000;0.000;2022-07-22T12:43:03;11.60;;;9.50;;
41141;SDS011;26882;0.000;0.000;2022-07-22T12:45:38;9.40;;;8.50;;
41141;SDS011;26882;0.000;0.000;2022-07-22T12:48:12;9.50;;;8.60;;
41141;SDS011;26882;0.000;0.000;2022-07-22T12:50:53;9.20;;;8.30;;
41141;SDS011;26882;0.000;0.000;2022-07-22T12:53:27;9.90;;;8.40;;
41141;SDS011;26882;0.000;0.000;2022-07-22T12:56:04;9.50;;;8.60;;
41141;SDS011;26882;0.000;0.000;2022-07-22T12:58:40;9.30;;;8.40;;
41141;SDS011;26882;0.000;0.000;2022-07-22T13:01:18;9.80;;;8.70;;
41141;SDS011;26882;0.000;0.000;2022-07-22T13:03:52;9.40;;;8.50;;
41141;SDS011;26882;0.000;0.000;2022-07-22T13:06:25;8.80;;;8.00;;
41141;SDS011;26882;0.000;0.000;2022-07-22T13:08:57;9.50;;;8.50;;
41141;SDS011;26882;0.000;0.000;2022-07-22T13:11:29;8.70;;;7.90;;
41141;SDS011;26882;0.000;0.000;2022-07-22T13:14:13;10.00;;;8.20;;
41141;SDS011;26882;0.000;0.000;2022-07-22T13:16:46;8.60;;;7.80;;
41141;SDS011;26882;0.000;0.000;2022-07-22T13:19:21;8.90;;;8.00;;
41141;SDS011;26882;0.000;0.000;2022-07-22T13:21:54;8.40;;;7.60;;
41141;SDS011;26882;0.000;0.000;2022-07-22T13:24:26;9.20;;;8.30;;
41141;SDS011;26882;0.000;0.000;2022-07-22T13:26:58;9.60;;;8.70;;
41141;SDS011;26882;0.000;0.000;2022-07-22T13:29:32;9.00;;;8.20;;
41141;SDS011;26882;0.000;0.000;2022-07-22T13:32:07;9.30;;;8.00;;
41141;SDS011;26882;0.000;0.000;2022-07-22T13:34:40;9.20;;;8.30;;
41141;SDS011;26882;0.000;0.000;2022-07-22T13:37:12;10.40;;;8.90;;
41141;SDS011;26882;0.000;0.000;2022-07-22T13:39:44;9.50;;;8.50;;
41141;SDS011;26882;0.000;0.000;2022-07-22T13:42:18;8.80;;;7.90;;
41141;SDS011;26882;0.000;0.000;2022-07-22T13:44:50;11.30;;;8.10;;
41141;SDS011;26882;0.000;0.000;2022-07-22T13:47:24;8.50;;;7.70;;
41141;SDS011;26882;0.000;0.000;2022-07-22T13:49:57;10.00;;;9.00;;
41141;SDS011;26882;0.000;0.000;2022-07-22T13:52:31;9.40;;;7.90;;
41141;SDS011;26882;0.000;0.000;2022-07-22T13:57:39;9.00;;;8.10;;
41141;SDS011;26882;0.000;0.000;2022-07-22T14:00:15;8.80;;;7.90;;
41141;SDS011;26882;0.000;0.000;2022-07-22T14:02:50;8.80;;;7.90;;
41141;SDS011;26882;0.000;0.000;2022-07-22T14:05:26;9.80;;;8.90;;
41141;SDS011;26882;0.000;0.000;2022-07-22T14:08:01;9.30;;;8.50;;
41141;SDS011;26882;0.000;0.000;2022-07-22T14:10:34;9.80;;;8.90;;
41141;SDS011;26882;0.000;0.000;2022-07-22T14:13:10;10.20;;;9.30;;
41141;SDS011;26882;0.000;0.000;2022-07-22T14:15:42;9.90;;;9.00;;
41141;SDS011;26882;0.000;0.000;2022-07-22T14:18:15;9.80;;;8.90;;
41141;SDS011;26882;0.000;0.000;2022-07-22T14:20:48;9.10;;;8.30;;
41141;SDS011;26882;0.000;0.000;2022-07-22T14:23:22;9.70;;;8.70;;
41141;SDS011;26882;0.000;0.000;2022-07-22T14:25:55;10.40;;;9.40;;
41141;SDS011;26882;0.000;0.000;2022-07-22T14:28:28;10.60;;;9.50;;
41141;SDS011;26882;0.000;0.000;2022-07-22T14:31:03;9.90;;;9.00;;
41141;SDS011;26882;0.000;0.000;2022-07-22T14:33:36;9.20;;;8.30;;
41141;SDS011;26882;0.000;0.000;2022-07-22T14:36:09;9.40;;;8.50;;
41141;SDS011;26882;0.000;0.000;2022-07-22T14:38:41;9.50;;;8.60;;
41141;SDS011;26882;0.000;0.000;2022-07-22T14:41:14;10.60;;;9.40;;
41141;SDS011;26882;0.000;0.000;2022-07-22T14:43:47;10.80;;;9.10;;
41141;SDS011;26882;0.000;0.000;2022-07-22T14:48:50;10.60;;;9.50;;
41141;SDS011;26882;0.000;0.000;2022-07-22T14:51:26;10.50;;;9.50;;
41141;SDS011;26882;0.000;0.000;2022-07-22T14:53:58;10.90;;;9.80;;
41141;SDS011;26882;0.000;0.000;2022-07-22T14:56:31;10.20;;;9.10;;
41141;SDS011;26882;0.000;0.000;2022-07-22T14:59:03;10.30;;;9.30;;
41141;SDS011;26882;0.000;0.000;2022-07-22T15:01:40;10.50;;;9.50;;
41141;SDS011;26882;0.000;0.000;2022-07-22T15:04:12;9.90;;;8.90;;
41141;SDS011;26882;0.000;0.000;2022-07-22T15:06:45;10.20;;;9.20;;
41141;SDS011;26882;0.000;0.000;2022-07-22T15:09:17;9.90;;;8.70;;
41141;SDS011;26882;0.000;0.000;2022-07-22T15:14:21;10.20;;;8.50;;
41141;SDS011;26882;0.000;0.000;2022-07-22T15:16:54;8.90;;;8.10;;
41141;SDS011;26882;0.000;0.000;2022-07-22T15:19:26;9.20;;;8.40;;
41141;SDS011;26882;0.000;0.000;2022-07-22T15:21:59;9.70;;;8.80;;
41141;SDS011;26882;0.000;0.000;2022-07-22T15:24:31;9.40;;;8.50;;
41141;SDS011;26882;0.000;0.000;2022-07-22T15:27:04;9.00;;;8.10;;
41141;SDS011;26882;0.000;0.000;2022-07-22T15:29:37;8.60;;;7.70;;
41141;SDS011;26882;0.000;0.000;2022-07-22T15:32:09;9.20;;;8.30;;
41141;SDS011;26882;0.000;0.000;2022-07-22T15:34:42;8.60;;;7.70;;
41141;SDS011;26882;0.000;0.000;2022-07-22T15:37:14;9.30;;;8.20;;
41141;SDS011;26882;0.000;0.000;2022-07-22T15:39:49;8.80;;;7.40;;
41141;SDS011;26882;0.000;0.000;2022-07-22T15:42:21;9.70;;;7.90;;
41141;SDS011;26882;0.000;0.000;2022-07-22T15:44:54;9.60;;;7.60;;
41141;SDS011;26882;0.000;0.000;2022-07-22T15:47:27;9.30;;;8.40;;
41141;SDS011;26882;0.000;0.000;2022-07-22T15:49:59;8.70;;;7.80;;
41141;SDS011;26882;0.000;0.000;2022-07-22T15:52:32;8.40;;;7.60;;
41141;SDS011;26882;0.000;0.000;2022-07-22T15:55:05;8.90;;;8.10;;
41141;SDS011;26882;0.000;0.000;2022-07-22T15:57:44;8.80;;;7.90;;
41141;SDS011;26882;0.000;0.000;2022-07-22T16:00:34;10.50;;;8.00;;
41141;SDS011;26882;0.000;0.000;2022-07-22T16:03:06;9.20;;;8.30;;
41141;SDS011;26882;0.000;0.000;2022-07-22T16:05:41;9.00;;;8.20;;
41141;SDS011;26882;0.000;0.000;2022-07-22T16:08:13;9.70;;;8.50;;
41141;SDS011;26882;0.000;0.000;2022-07-22T16:10:45;9.10;;;8.20;;
41141;SDS011;26882;0.000;0.000;2022-07-22T16:13:18;9.10;;;8.20;;
41141;SDS011;26882;0.000;0.000;2022-07-22T16:15:51;9.60;;;8.60;;
41141;SDS011;26882;0.000;0.000;2022-07-22T16:18:23;9.10;;;8.20;;
41141;SDS011;26882;0.000;0.000;2022-07-22T16:20:56;11.30;;;8.80;;
41141;SDS011;26882;0.000;0.000;2022-07-22T16:23:28;9.10;;;8.00;;
41141;SDS011;26882;0.000;0.000;2022-07-22T16:26:01;9.00;;;8.10;;